createdAt,value
2019-05-17T00:00:57.430Z,9.90
2019-05-17T00:03:24.018Z,9.80
2019-05-17T00:05:50.393Z,9.90
2019-05-17T00:08:30.845Z,9.90
2019-05-17T00:10:46.522Z,9.90
2019-05-17T00:13:14.665Z,9.90
2019-05-17T00:15:41.141Z,9.70
2019-05-17T00:18:07.832Z,9.60
2019-05-17T00:20:34.317Z,9.60
2019-05-17T00:23:00.807Z,9.60
2019-05-17T00:25:27.602Z,9.50
2019-05-17T00:27:56.283Z,9.40
2019-05-17T00:30:22.464Z,9.40
2019-05-17T00:32:49.302Z,9.30
2019-05-17T00:35:17.809Z,9.30
2019-05-17T00:37:46.396Z,9.20
2019-05-17T00:40:12.822Z,9.20
2019-05-17T00:42:39.093Z,9.20
2019-05-17T00:45:06.709Z,9.20
2019-05-17T00:47:33.370Z,9.20
2019-05-17T00:49:59.923Z,9.20
2019-05-17T00:52:27.275Z,9.20
2019-05-17T00:54:56.232Z,9.10
2019-05-17T00:57:22.206Z,9.10
2019-05-17T00:59:48.785Z,9.10
2019-05-17T01:02:16.312Z,9.00
2019-05-17T01:04:42.905Z,9.00
2019-05-17T01:07:09.281Z,9.00
2019-05-17T01:09:36.634Z,8.90
2019-05-17T01:12:03.349Z,8.90
2019-05-17T01:14:29.950Z,8.80
2019-05-17T01:16:56.598Z,8.80
2019-05-17T01:19:22.921Z,8.70
2019-05-17T01:21:49.411Z,8.80
2019-05-17T01:24:17.266Z,8.70
2019-05-17T01:26:44.166Z,8.60
2019-05-17T01:29:13.009Z,8.60
2019-05-17T01:31:40.534Z,8.60
2019-05-17T01:34:07.507Z,8.50
2019-05-17T01:36:33.913Z,8.50
2019-05-17T01:39:00.291Z,8.40
2019-05-17T01:41:26.733Z,8.40
2019-05-17T01:43:53.215Z,8.30
2019-05-17T01:46:19.596Z,8.30
2019-05-17T01:48:47.071Z,8.30
2019-05-17T01:51:13.848Z,8.30
2019-05-17T01:53:40.437Z,8.30
2019-05-17T01:56:07.070Z,8.30
2019-05-17T01:58:33.566Z,8.20
2019-05-17T02:01:00.018Z,8.20
2019-05-17T02:03:26.850Z,8.20
2019-05-17T02:05:53.455Z,8.20
2019-05-17T02:08:20.081Z,8.20
2019-05-17T02:10:46.664Z,8.10
2019-05-17T02:13:12.965Z,8.10
2019-05-17T02:15:39.315Z,8.20
2019-05-17T02:18:06.999Z,8.10
2019-05-17T02:20:33.815Z,8.10
2019-05-17T02:23:00.460Z,8.10
2019-05-17T02:25:27.288Z,8.10
2019-05-17T02:27:53.861Z,8.10
2019-05-17T02:30:23.303Z,8.10
2019-05-17T02:32:48.969Z,8.10
2019-05-17T02:35:15.585Z,8.10
2019-05-17T02:37:43.388Z,8.20
2019-05-17T02:40:14.642Z,8.10
2019-05-17T02:42:42.681Z,8.20
2019-05-17T02:45:08.554Z,8.20
2019-05-17T02:47:35.012Z,8.10
2019-05-17T02:50:05.180Z,8.10
2019-05-17T02:52:32.649Z,8.10
2019-05-17T02:54:58.007Z,8.10
2019-05-17T02:57:24.701Z,8.10
2019-05-17T02:59:52.578Z,8.10
2019-05-17T03:02:23.315Z,8.10
2019-05-17T03:04:47.464Z,8.20
2019-05-17T03:07:14.077Z,8.20
2019-05-17T03:09:43.162Z,8.20
2019-05-17T03:12:08.763Z,8.20
2019-05-17T03:14:35.188Z,8.30
2019-05-17T03:17:03.244Z,8.30
2019-05-17T03:19:32.586Z,8.40
2019-05-17T03:21:58.244Z,8.50
2019-05-17T03:24:24.678Z,8.50
2019-05-17T03:26:52.627Z,8.40
2019-05-17T03:29:22.430Z,8.40
2019-05-17T03:31:58.070Z,8.50
2019-05-17T03:34:25.792Z,8.50
2019-05-17T03:36:48.195Z,8.50
2019-05-17T03:39:15.402Z,8.60
2019-05-17T03:41:42.952Z,8.70
2019-05-17T03:44:09.500Z,8.70
2019-05-17T03:46:35.991Z,8.80
2019-05-17T03:49:03.790Z,8.90
2019-05-17T03:51:33.280Z,8.90
2019-05-17T03:53:58.640Z,8.90
2019-05-17T03:56:25.041Z,9.00
2019-05-17T03:58:53.127Z,9.10
2019-05-17T04:01:22.943Z,9.10
2019-05-17T04:03:47.982Z,9.20
2019-05-17T04:06:14.435Z,9.30
2019-05-17T04:08:42.486Z,9.30
2019-05-17T04:11:22.088Z,9.40
2019-05-17T04:13:37.299Z,9.40
2019-05-17T04:16:08.715Z,9.40
2019-05-17T04:18:33.620Z,9.50
2019-05-17T04:21:03.134Z,9.60
2019-05-17T04:23:28.374Z,9.60
2019-05-17T04:25:54.925Z,9.60
2019-05-17T04:28:22.973Z,9.70
2019-05-17T04:30:52.519Z,9.80
2019-05-17T04:33:18.014Z,9.90
2019-05-17T04:35:44.415Z,10.10
2019-05-17T04:38:12.778Z,10.30
2019-05-17T04:40:39.072Z,10.20
2019-05-17T04:43:05.457Z,10.10
2019-05-17T04:45:33.605Z,10.10
2019-05-17T04:48:03.663Z,10.10
2019-05-17T04:50:28.634Z,10.30
2019-05-17T04:52:55.028Z,10.40
2019-05-17T04:55:23.082Z,10.40
2019-05-17T04:57:52.857Z,10.40
2019-05-17T05:00:18.126Z,10.50
2019-05-17T05:02:44.737Z,10.50
2019-05-17T05:05:13.463Z,10.50
2019-05-17T05:07:42.864Z,10.70
2019-05-17T05:10:08.406Z,10.90
2019-05-17T05:12:35.075Z,11.00
2019-05-17T05:15:03.566Z,11.10
2019-05-17T05:17:32.668Z,11.20
2019-05-17T05:19:58.388Z,11.30
2019-05-17T05:22:25.002Z,11.30
2019-05-17T05:24:52.458Z,11.50
2019-05-17T05:27:19.037Z,11.60
2019-05-17T05:29:45.757Z,11.70
2019-05-17T05:32:12.358Z,11.80
2019-05-17T05:34:38.941Z,12.00
2019-05-17T05:37:05.237Z,12.00
2019-05-17T05:39:32.069Z,12.10
2019-05-17T05:42:06.975Z,12.10
2019-05-17T05:44:26.942Z,12.20
2019-05-17T05:46:53.300Z,12.40
2019-05-17T05:49:21.689Z,12.40
2019-05-17T05:51:48.042Z,12.40
2019-05-17T05:54:14.545Z,12.60
2019-05-17T05:56:42.257Z,12.60
2019-05-17T05:59:11.885Z,12.60
2019-05-17T06:01:37.631Z,12.60
2019-05-17T06:04:04.103Z,12.60
2019-05-17T06:06:32.194Z,12.70
2019-05-17T06:08:58.773Z,12.90
2019-05-17T06:11:25.641Z,13.10
2019-05-17T06:13:52.445Z,13.20
2019-05-17T06:16:18.850Z,13.10
2019-05-17T06:18:45.336Z,13.10
2019-05-17T06:21:12.285Z,13.30
2019-05-17T06:23:38.856Z,13.60
2019-05-17T06:26:05.386Z,13.80
2019-05-17T06:28:32.028Z,13.50
2019-05-17T06:30:58.337Z,13.60
2019-05-17T06:33:30.458Z,13.80
2019-05-17T06:35:53.082Z,14.00
2019-05-17T06:38:22.265Z,14.30
2019-05-17T06:40:48.014Z,14.50
2019-05-17T06:43:14.482Z,14.90
2019-05-17T06:45:41.888Z,15.30
2019-05-17T06:48:08.518Z,16.10
2019-05-17T06:50:34.999Z,16.70
2019-05-17T06:53:03.248Z,17.00
2019-05-17T06:55:31.416Z,17.80
2019-05-17T06:57:57.646Z,18.60
2019-05-17T07:00:24.415Z,18.00
2019-05-17T07:02:50.850Z,18.50
2019-05-17T07:05:20.051Z,18.10
2019-05-17T07:07:46.551Z,17.70
2019-05-17T07:10:13.287Z,17.70
2019-05-17T07:12:54.148Z,18.40
2019-05-17T07:15:10.598Z,18.30
2019-05-17T07:17:36.734Z,18.70
2019-05-17T07:20:03.626Z,18.70
2019-05-17T07:22:30.096Z,17.80
2019-05-17T07:24:56.629Z,18.50
2019-05-17T07:27:22.870Z,18.50
2019-05-17T07:29:49.764Z,18.70
2019-05-17T07:32:16.192Z,18.10
2019-05-17T07:34:42.443Z,19.10
2019-05-17T07:37:10.540Z,19.00
2019-05-17T07:39:40.007Z,18.90
2019-05-17T07:42:05.315Z,18.90
2019-05-17T07:44:31.804Z,19.50
2019-05-17T07:47:00.039Z,19.90
2019-05-17T07:49:26.552Z,20.50
2019-05-17T07:51:53.018Z,20.50
2019-05-17T07:54:19.802Z,20.50
2019-05-17T07:56:46.294Z,20.50
2019-05-17T07:59:12.809Z,21.20
2019-05-17T08:01:41.295Z,21.50
2019-05-17T08:04:09.846Z,21.80
2019-05-17T08:06:35.723Z,22.30
2019-05-17T08:09:04.687Z,22.70
2019-05-17T08:11:31.309Z,22.40
2019-05-17T08:13:59.698Z,22.20
2019-05-17T08:16:25.982Z,22.50
2019-05-17T08:18:52.579Z,22.20
2019-05-17T08:21:19.913Z,22.50
2019-05-17T08:23:46.550Z,22.00
2019-05-17T08:26:13.079Z,22.10
2019-05-17T08:28:40.425Z,21.80
2019-05-17T08:31:06.896Z,21.80
2019-05-17T08:33:33.476Z,22.20
2019-05-17T08:35:59.972Z,22.20
2019-05-17T08:38:26.433Z,21.50
2019-05-17T08:40:52.927Z,21.90
2019-05-17T08:43:21.548Z,22.40
2019-05-17T08:45:50.046Z,22.20
2019-05-17T08:48:16.334Z,22.20
2019-05-17T08:50:42.834Z,21.70
2019-05-17T08:53:10.674Z,22.10
2019-05-17T08:55:37.532Z,23.00
2019-05-17T08:58:04.018Z,23.30
2019-05-17T09:00:31.401Z,22.40
2019-05-17T09:03:00.131Z,22.60
2019-05-17T09:05:26.658Z,23.70
2019-05-17T09:07:53.207Z,22.80
2019-05-17T09:10:20.801Z,21.80
2019-05-17T09:12:50.082Z,21.70
2019-05-17T09:15:15.605Z,21.60
2019-05-17T09:17:41.876Z,22.20
2019-05-17T09:20:10.680Z,22.80
2019-05-17T09:22:39.656Z,23.40
2019-05-17T09:25:06.178Z,23.20
2019-05-17T09:27:32.857Z,22.20
2019-05-17T09:30:00.017Z,22.40
2019-05-17T09:32:26.705Z,22.10
2019-05-17T09:34:53.312Z,22.60
2019-05-17T09:37:22.326Z,22.20
2019-05-17T09:39:49.236Z,22.30
2019-05-17T09:42:15.656Z,22.90
2019-05-17T09:44:42.018Z,22.10
2019-05-17T09:47:10.144Z,22.50
2019-05-17T09:49:36.701Z,22.60
2019-05-17T09:52:03.260Z,21.60
2019-05-17T09:54:41.349Z,21.00
2019-05-17T09:57:00.295Z,21.70
2019-05-17T09:59:26.086Z,21.80
2019-05-17T10:01:52.714Z,22.10
2019-05-17T10:04:19.921Z,21.80
2019-05-17T10:06:46.393Z,21.20
2019-05-17T10:09:12.863Z,21.10
2019-05-17T10:11:39.939Z,21.60
2019-05-17T10:14:06.482Z,21.70
2019-05-17T10:16:33.056Z,20.80
2019-05-17T10:19:00.074Z,20.40
2019-05-17T10:21:26.596Z,20.90
2019-05-17T10:23:52.969Z,20.70
2019-05-17T10:26:19.850Z,20.50
2019-05-17T10:28:46.484Z,21.10
2019-05-17T10:31:13.025Z,21.80
2019-05-17T10:33:40.105Z,21.80
2019-05-17T10:36:06.647Z,21.80
2019-05-17T10:38:33.073Z,22.50
2019-05-17T10:40:59.553Z,22.30
2019-05-17T10:43:25.935Z,21.50
2019-05-17T10:45:52.465Z,21.00
2019-05-17T10:48:21.233Z,21.60
2019-05-17T10:50:49.512Z,21.30
2019-05-17T10:53:15.684Z,21.70
2019-05-17T10:55:42.403Z,21.10
2019-05-17T10:58:09.945Z,21.00
2019-05-17T11:00:36.757Z,21.30
2019-05-17T11:03:03.304Z,21.50
2019-05-17T11:05:30.845Z,21.50
2019-05-17T11:07:59.765Z,21.10
2019-05-17T11:10:26.105Z,21.80
2019-05-17T11:12:52.560Z,20.60
2019-05-17T11:15:19.038Z,20.30
2019-05-17T11:17:45.400Z,20.60
2019-05-17T11:20:13.389Z,20.80
2019-05-17T11:22:39.889Z,20.90
2019-05-17T11:25:06.595Z,21.50
2019-05-17T11:27:33.473Z,21.90
2019-05-17T11:29:59.899Z,22.00
2019-05-17T11:32:26.379Z,21.90
2019-05-17T11:34:52.898Z,21.70
2019-05-17T11:37:19.502Z,21.40
2019-05-17T11:39:45.993Z,21.10
2019-05-17T11:42:12.543Z,20.60
2019-05-17T11:44:39.053Z,19.90
2019-05-17T11:47:05.692Z,20.00
2019-05-17T11:49:31.966Z,19.80
2019-05-17T11:51:58.457Z,20.70
2019-05-17T11:54:25.041Z,20.70
2019-05-17T11:56:51.558Z,20.50
2019-05-17T11:59:18.080Z,20.10
2019-05-17T12:01:44.553Z,20.40
2019-05-17T12:04:11.053Z,20.90
2019-05-17T12:06:37.660Z,20.60
2019-05-17T12:09:05.241Z,20.70
2019-05-17T12:11:31.714Z,20.60
2019-05-17T12:13:58.194Z,20.10
2019-05-17T12:16:24.692Z,20.50
2019-05-17T12:18:51.089Z,21.00
2019-05-17T12:21:17.577Z,21.00
2019-05-17T12:23:43.950Z,21.10
2019-05-17T12:26:10.432Z,21.10
2019-05-17T12:28:36.740Z,21.70
2019-05-17T12:31:03.113Z,21.90
2019-05-17T12:33:29.354Z,22.00
2019-05-17T12:35:55.990Z,21.40
2019-05-17T12:38:22.260Z,21.50
2019-05-17T12:40:48.726Z,21.50
2019-05-17T12:43:15.209Z,20.90
2019-05-17T12:45:41.701Z,21.60
2019-05-17T12:48:08.188Z,21.50
2019-05-17T12:50:34.592Z,20.80
2019-05-17T12:53:00.848Z,20.90
2019-05-17T12:55:27.487Z,21.40
2019-05-17T12:57:53.993Z,21.60
2019-05-17T13:00:20.998Z,22.10
2019-05-17T13:02:47.475Z,21.30
2019-05-17T13:05:13.858Z,21.30
2019-05-17T13:07:40.667Z,21.00
2019-05-17T13:10:08.110Z,21.70
2019-05-17T13:12:35.859Z,21.90
2019-05-17T13:15:06.083Z,22.10
2019-05-17T13:17:32.562Z,22.40
2019-05-17T13:19:59.085Z,22.20
2019-05-17T13:22:25.651Z,21.90
2019-05-17T13:24:52.037Z,21.60
2019-05-17T13:27:18.558Z,21.20
2019-05-17T13:29:45.151Z,21.30
2019-05-17T13:32:11.511Z,20.70
2019-05-17T13:34:38.064Z,20.40
2019-05-17T13:37:04.725Z,20.40
2019-05-17T13:39:31.049Z,20.00
2019-05-17T13:41:57.433Z,19.60
2019-05-17T13:44:23.901Z,19.70
2019-05-17T13:46:50.452Z,19.60
2019-05-17T13:49:16.954Z,19.60
2019-05-17T13:51:43.547Z,19.90
2019-05-17T13:54:10.172Z,18.50
2019-05-17T13:56:36.732Z,18.80
2019-05-17T13:59:03.344Z,18.30
2019-05-17T14:01:29.843Z,18.50
2019-05-17T14:03:56.439Z,18.80
2019-05-17T14:06:23.227Z,19.00
2019-05-17T14:08:49.592Z,18.50
2019-05-17T14:11:16.000Z,18.70
2019-05-17T14:13:42.513Z,18.70
2019-05-17T14:16:08.750Z,19.30
2019-05-17T14:18:35.229Z,19.30
2019-05-17T14:21:01.578Z,18.70
2019-05-17T14:23:27.860Z,18.50
2019-05-17T14:25:54.147Z,18.50
2019-05-17T14:28:20.742Z,18.90
2019-05-17T14:30:47.157Z,18.60
2019-05-17T14:33:16.044Z,18.30
2019-05-17T14:35:42.450Z,18.90
2019-05-17T14:38:08.756Z,19.20
2019-05-17T14:41:04.917Z,19.20
2019-05-17T14:43:03.448Z,19.40
2019-05-17T14:45:29.820Z,19.40
2019-05-17T14:47:56.532Z,19.50
2019-05-17T14:50:22.916Z,19.30
2019-05-17T14:52:49.307Z,19.20
2019-05-17T14:55:15.940Z,19.40
2019-05-17T14:57:43.162Z,18.30
2019-05-17T15:00:10.022Z,18.40
2019-05-17T15:02:36.714Z,18.50
2019-05-17T15:05:04.517Z,18.10
2019-05-17T15:07:31.013Z,18.10
2019-05-17T15:09:57.508Z,18.00
2019-05-17T15:12:28.359Z,17.60
2019-05-17T15:14:52.193Z,17.20
2019-05-17T15:17:18.803Z,17.60
2019-05-17T15:19:45.203Z,17.60
2019-05-17T15:22:11.453Z,17.90
2019-05-17T15:24:37.821Z,17.70
2019-05-17T15:27:06.184Z,17.90
2019-05-17T15:29:32.482Z,18.20
2019-05-17T15:31:58.881Z,18.00
2019-05-17T15:34:25.296Z,17.80
2019-05-17T15:36:51.798Z,17.80
2019-05-17T15:39:18.183Z,17.60
2019-05-17T15:41:44.632Z,17.60
2019-05-17T15:44:11.052Z,17.90
2019-05-17T15:46:37.454Z,17.70
2019-05-17T15:49:03.927Z,18.10
2019-05-17T15:51:30.336Z,18.20
2019-05-17T15:53:57.013Z,17.70
2019-05-17T15:56:23.394Z,17.90
2019-05-17T15:58:49.807Z,17.50
2019-05-17T16:01:16.303Z,17.10
2019-05-17T16:03:42.675Z,17.20
2019-05-17T16:06:09.258Z,17.10
2019-05-17T16:08:35.630Z,17.30
2019-05-17T16:11:02.098Z,17.30
2019-05-17T16:13:28.395Z,17.20
2019-05-17T16:15:54.757Z,16.80
2019-05-17T16:18:21.223Z,16.90
2019-05-17T16:20:47.689Z,17.20
2019-05-17T16:23:14.209Z,17.00
2019-05-17T16:25:40.575Z,16.70
2019-05-17T16:28:07.190Z,16.30
2019-05-17T16:30:33.602Z,16.30
2019-05-17T16:33:00.020Z,16.30
2019-05-17T16:35:26.505Z,16.40
2019-05-17T16:37:52.763Z,16.50
2019-05-17T16:40:19.139Z,16.40
2019-05-17T16:42:45.506Z,16.30
2019-05-17T16:45:13.789Z,16.40
2019-05-17T16:47:40.295Z,16.30
2019-05-17T16:50:07.071Z,16.20
2019-05-17T16:52:33.553Z,16.20
2019-05-17T16:54:59.853Z,16.10
2019-05-17T16:57:26.311Z,16.00
2019-05-17T16:59:52.700Z,16.00
2019-05-17T17:02:19.256Z,16.10
2019-05-17T17:04:45.776Z,16.00
2019-05-17T17:07:12.218Z,16.00
2019-05-17T17:09:38.726Z,16.00
2019-05-17T17:12:05.329Z,16.00
2019-05-17T17:14:31.742Z,16.10
2019-05-17T17:16:58.211Z,16.20
2019-05-17T17:19:24.679Z,16.40
2019-05-17T17:21:51.157Z,16.40
2019-05-17T17:24:17.560Z,16.40
2019-05-17T17:26:43.934Z,16.40
2019-05-17T17:29:10.417Z,16.30
2019-05-17T17:31:36.946Z,16.30
2019-05-17T17:34:03.417Z,16.10
2019-05-17T17:36:29.739Z,16.20
2019-05-17T17:38:56.246Z,16.20
2019-05-17T17:41:25.848Z,16.20
2019-05-17T17:43:58.634Z,16.10
2019-05-17T17:46:19.580Z,16.10
2019-05-17T17:48:46.062Z,16.00
2019-05-17T17:51:12.451Z,15.80
2019-05-17T17:53:38.712Z,15.80
2019-05-17T17:56:05.210Z,15.60
2019-05-17T17:58:31.625Z,15.70
2019-05-17T18:00:58.267Z,15.80
2019-05-17T18:03:24.759Z,15.70
2019-05-17T18:05:51.225Z,15.60
2019-05-17T18:08:17.674Z,15.50
2019-05-17T18:10:46.577Z,15.40
2019-05-17T18:13:12.486Z,15.40
2019-05-17T18:15:42.548Z,15.30
2019-05-17T18:18:09.038Z,15.30
2019-05-17T18:20:35.612Z,15.10
2019-05-17T18:23:02.075Z,15.10
2019-05-17T18:25:28.532Z,15.00
2019-05-17T18:27:55.013Z,15.00
2019-05-17T18:30:21.596Z,14.90
2019-05-17T18:32:51.434Z,14.70
2019-05-17T18:35:17.864Z,14.70
2019-05-17T18:37:44.349Z,14.70
2019-05-17T18:40:10.908Z,14.60
2019-05-17T18:42:37.185Z,14.60
2019-05-17T18:45:05.354Z,14.60
2019-05-17T18:47:32.827Z,14.50
2019-05-17T18:49:59.268Z,14.50
2019-05-17T18:52:25.783Z,14.40
2019-05-17T18:54:53.559Z,14.30
2019-05-17T18:57:20.033Z,14.20
2019-05-17T18:59:46.465Z,14.30
2019-05-17T19:02:12.878Z,14.20
2019-05-17T19:04:39.392Z,14.10
2019-05-17T19:07:05.810Z,14.20
2019-05-17T19:09:32.270Z,14.10
2019-05-17T19:11:58.723Z,13.90
2019-05-17T19:14:25.087Z,14.00
2019-05-17T19:16:51.461Z,13.90
2019-05-17T19:19:17.730Z,14.00
2019-05-17T19:21:44.370Z,13.90
2019-05-17T19:24:10.949Z,13.90
2019-05-17T19:26:37.346Z,13.90
2019-05-17T19:29:03.848Z,13.80
2019-05-17T19:31:30.117Z,13.80
2019-05-17T19:33:56.519Z,13.70
2019-05-17T19:36:23.067Z,13.70
2019-05-17T19:38:49.526Z,13.70
2019-05-17T19:41:15.893Z,13.70
2019-05-17T19:43:42.654Z,13.70
2019-05-17T19:46:09.125Z,13.60
2019-05-17T19:48:35.615Z,13.50
2019-05-17T19:51:02.129Z,13.50
2019-05-17T19:53:28.613Z,13.40
2019-05-17T19:55:54.974Z,13.40
2019-05-17T19:58:21.357Z,13.50
2019-05-17T20:00:47.862Z,13.40
2019-05-17T20:03:14.324Z,13.40
2019-05-17T20:05:40.815Z,13.30
2019-05-17T20:08:07.347Z,13.20
2019-05-17T20:10:33.789Z,13.20
2019-05-17T20:13:00.272Z,13.20
2019-05-17T20:15:34.599Z,13.20
2019-05-17T20:17:55.115Z,13.10
2019-05-17T20:20:21.651Z,13.20
2019-05-17T20:22:48.150Z,13.30
2019-05-17T20:25:14.728Z,13.40
2019-05-17T20:27:41.184Z,13.40
2019-05-17T20:30:09.011Z,13.40
2019-05-17T20:32:35.511Z,13.40
2019-05-17T20:35:02.709Z,13.30
2019-05-17T20:37:29.232Z,13.30
2019-05-17T20:39:55.694Z,13.30
2019-05-17T20:42:22.181Z,13.20
2019-05-17T20:44:48.445Z,13.10
2019-05-17T20:47:14.809Z,13.10
2019-05-17T20:49:41.319Z,13.10
2019-05-17T20:52:07.888Z,13.10
2019-05-17T20:54:34.535Z,13.10
2019-05-17T20:57:00.984Z,13.10
2019-05-17T20:59:27.341Z,13.10
2019-05-17T21:01:53.866Z,13.10
2019-05-17T21:04:20.133Z,13.20
2019-05-17T21:06:46.629Z,13.20
2019-05-17T21:09:12.990Z,13.20
2019-05-17T21:11:39.461Z,13.10
2019-05-17T21:14:05.952Z,13.10
2019-05-17T21:16:32.324Z,13.10
2019-05-17T21:18:58.717Z,13.20
2019-05-17T21:21:24.980Z,13.10
2019-05-17T21:23:51.454Z,13.10
2019-05-17T21:26:17.955Z,13.00
2019-05-17T21:28:47.192Z,13.00
2019-05-17T21:31:12.630Z,13.00
2019-05-17T21:33:39.017Z,12.90
2019-05-17T21:36:05.639Z,12.90
2019-05-17T21:38:32.022Z,13.00
2019-05-17T21:40:58.615Z,13.10
2019-05-17T21:43:25.249Z,13.10
2019-05-17T21:46:03.284Z,13.10
2019-05-17T21:48:21.789Z,13.10
2019-05-17T21:50:48.233Z,13.20
2019-05-17T21:53:14.558Z,13.00
2019-05-17T21:55:40.917Z,13.00
2019-05-17T21:58:07.443Z,13.00
2019-05-17T22:00:51.457Z,13.00
2019-05-17T22:03:17.809Z,13.10
2019-05-17T22:05:44.278Z,13.10
2019-05-17T22:08:10.986Z,13.10
2019-05-17T22:10:37.508Z,13.10
2019-05-17T22:13:03.878Z,13.10
2019-05-17T22:15:30.372Z,13.20
2019-05-17T22:17:56.840Z,13.20
2019-05-17T22:20:23.310Z,13.20
2019-05-17T22:22:49.850Z,13.20
2019-05-17T22:25:16.299Z,13.20
2019-05-17T22:27:42.696Z,13.20
2019-05-17T22:30:09.198Z,13.20
2019-05-17T22:32:35.691Z,13.20
2019-05-17T22:35:02.750Z,13.10
2019-05-17T22:37:29.254Z,13.10
2019-05-17T22:39:55.619Z,13.00
2019-05-17T22:42:21.911Z,13.10
2019-05-17T22:44:48.300Z,13.00
2019-05-17T22:47:14.664Z,13.00
2019-05-17T22:49:41.164Z,13.00
2019-05-17T22:52:07.485Z,13.20
2019-05-17T22:54:33.877Z,13.20
2019-05-17T22:57:00.245Z,13.20
2019-05-17T22:59:26.501Z,13.10
2019-05-17T23:01:52.943Z,13.10
2019-05-17T23:04:19.389Z,13.10
2019-05-17T23:06:45.842Z,13.10
2019-05-17T23:09:12.347Z,13.10
2019-05-17T23:11:38.872Z,13.10
2019-05-17T23:14:05.343Z,13.00
2019-05-17T23:16:31.705Z,13.10
2019-05-17T23:19:10.451Z,13.00
2019-05-17T23:21:37.249Z,13.00
2019-05-17T23:24:03.835Z,12.90
2019-05-17T23:26:30.187Z,12.90
2019-05-17T23:28:56.734Z,12.90
2019-05-17T23:31:23.160Z,12.90
2019-05-17T23:33:49.438Z,13.00
2019-05-17T23:36:15.905Z,13.00
2019-05-17T23:38:42.180Z,13.00
2019-05-17T23:41:08.703Z,13.00
2019-05-17T23:43:35.077Z,13.10
2019-05-17T23:46:01.452Z,13.00
2019-05-17T23:48:27.712Z,13.00
2019-05-17T23:50:53.975Z,13.00
2019-05-17T23:53:20.398Z,13.00
2019-05-17T23:55:46.812Z,13.00
2019-05-17T23:58:13.238Z,13.00
